sensor_id;sensor_type;location;lat;lon;timestamp;pressure;altitude;pressure_sealevel;temperature;humidity
74627;BME280;63132;52.268;5.192;2022-11-30T00:00:28;102195.34;;;7.34;100.00
74627;BME280;63132;52.268;5.192;2022-11-30T00:02:56;102198.53;;;7.36;100.00
74627;BME280;63132;52.268;5.192;2022-11-30T00:05:22;102206.84;;;7.24;100.00
74627;BME280;63132;52.268;5.192;2022-11-30T00:07:47;102200.84;;;7.34;100.00
74627;BME280;63132;52.268;5.192;2022-11-30T00:10:13;102202.25;;;7.28;100.00
74627;BME280;63132;52.268;5.192;2022-11-30T00:12:39;102199.25;;;7.20;100.00
74627;BME280;63132;52.268;5.192;2022-11-30T00:15:12;102207.53;;;7.20;100.00
74627;BME280;63132;52.268;5.192;2022-11-30T00:17:39;102196.16;;;7.22;100.00
74627;BME280;63132;52.268;5.192;2022-11-30T00:20:06;102205.03;;;7.15;100.00
74627;BME280;63132;52.268;5.192;2022-11-30T00:22:31;102208.69;;;7.07;100.00
74627;BME280;63132;52.268;5.192;2022-11-30T00:24:57;102209.13;;;7.21;100.00
74627;BME280;63132;52.268;5.192;2022-11-30T00:27:26;102207.81;;;7.56;100.00
74627;BME280;63132;52.268;5.192;2022-11-30T00:29:51;102201.56;;;7.31;100.00
74627;BME280;63132;52.268;5.192;2022-11-30T00:32:20;102202.03;;;7.20;100.00
74627;BME280;63132;52.268;5.192;2022-11-30T00:34:55;102209.63;;;6.99;100.00
74627;BME280;63132;52.268;5.192;2022-11-30T00:37:21;102205.72;;;7.12;100.00
74627;BME280;63132;52.268;5.192;2022-11-30T00:39:47;102207.50;;;7.45;100.00
74627;BME280;63132;52.268;5.192;2022-11-30T00:42:13;102204.03;;;7.48;100.00
74627;BME280;63132;52.268;5.192;2022-11-30T00:44:39;102198.31;;;7.29;100.00
74627;BME280;63132;52.268;5.192;2022-11-30T00:47:05;102203.63;;;7.21;100.00
74627;BME280;63132;52.268;5.192;2022-11-30T00:49:30;102205.03;;;7.15;100.00
74627;BME280;63132;52.268;5.192;2022-11-30T00:51:58;102201.81;;;7.13;100.00
74627;BME280;63132;52.268;5.192;2022-11-30T00:54:23;102206.97;;;7.15;100.00
74627;BME280;63132;52.268;5.192;2022-11-30T00:56:49;102203.53;;;7.18;100.00
74627;BME280;63132;52.268;5.192;2022-11-30T00:59:14;102208.25;;;7.17;100.00
74627;BME280;63132;52.268;5.192;2022-11-30T01:01:39;102213.28;;;7.15;100.00
74627;BME280;63132;52.268;5.192;2022-11-30T01:04:05;102221.56;;;7.15;100.00
74627;BME280;63132;52.268;5.192;2022-11-30T01:06:30;102214.09;;;7.16;100.00
74627;BME280;63132;52.268;5.192;2022-11-30T01:08:57;102225.13;;;7.16;100.00
74627;BME280;63132;52.268;5.192;2022-11-30T01:11:25;102221.06;;;7.26;100.00
74627;BME280;63132;52.268;5.192;2022-11-30T01:13:52;102214.78;;;7.25;100.00
74627;BME280;63132;52.268;5.192;2022-11-30T01:16:21;102212.00;;;7.25;100.00
74627;BME280;63132;52.268;5.192;2022-11-30T01:18:48;102219.31;;;7.45;100.00
74627;BME280;63132;52.268;5.192;2022-11-30T01:21:17;102221.06;;;7.38;100.00
74627;BME280;63132;52.268;5.192;2022-11-30T01:23:43;102227.47;;;7.42;100.00
74627;BME280;63132;52.268;5.192;2022-11-30T01:26:09;102223.00;;;7.37;100.00
74627;BME280;63132;52.268;5.192;2022-11-30T01:28:35;102217.16;;;7.27;100.00
74627;BME280;63132;52.268;5.192;2022-11-30T01:31:03;102228.53;;;7.25;100.00
74627;BME280;63132;52.268;5.192;2022-11-30T01:33:29;102215.00;;;7.20;100.00
74627;BME280;63132;52.268;5.192;2022-11-30T01:38:32;102226.25;;;7.15;100.00
74627;BME280;63132;52.268;5.192;2022-11-30T01:40:58;102231.31;;;7.13;100.00
74627;BME280;63132;52.268;5.192;2022-11-30T01:43:49;102227.31;;;7.10;100.00
74627;BME280;63132;52.268;5.192;2022-11-30T01:49:13;102220.41;;;7.04;100.00
74627;BME280;63132;52.268;5.192;2022-11-30T01:54:22;102218.81;;;7.03;100.00
74627;BME280;63132;52.268;5.192;2022-11-30T01:56:59;102220.06;;;7.06;100.00
74627;BME280;63132;52.268;5.192;2022-11-30T01:59:27;102226.63;;;7.01;100.00
74627;BME280;63132;52.268;5.192;2022-11-30T02:01:53;102224.09;;;7.08;100.00
74627;BME280;63132;52.268;5.192;2022-11-30T02:04:23;102225.78;;;7.13;100.00
74627;BME280;63132;52.268;5.192;2022-11-30T02:06:49;102219.38;;;7.09;100.00
74627;BME280;63132;52.268;5.192;2022-11-30T02:09:15;102226.84;;;7.08;100.00
74627;BME280;63132;52.268;5.192;2022-11-30T02:11:42;102224.53;;;7.10;100.00
74627;BME280;63132;52.268;5.192;2022-11-30T02:14:19;102228.56;;;7.01;100.00
74627;BME280;63132;52.268;5.192;2022-11-30T02:20:06;102224.56;;;6.86;100.00
74627;BME280;63132;52.268;5.192;2022-11-30T02:30:35;102216.75;;;6.76;100.00
74627;BME280;63132;52.268;5.192;2022-11-30T02:33:18;102226.16;;;6.75;100.00
74627;BME280;63132;52.268;5.192;2022-11-30T02:35:49;102218.34;;;6.77;100.00
74627;BME280;63132;52.268;5.192;2022-11-30T02:38:20;102215.94;;;6.63;100.00
74627;BME280;63132;52.268;5.192;2022-11-30T02:40:46;102214.78;;;6.52;100.00
74627;BME280;63132;52.268;5.192;2022-11-30T02:43:12;102213.75;;;6.69;100.00
74627;BME280;63132;52.268;5.192;2022-11-30T02:45:49;102212.72;;;6.61;100.00
74627;BME280;63132;52.268;5.192;2022-11-30T02:48:21;102222.47;;;6.58;100.00
74627;BME280;63132;52.268;5.192;2022-11-30T02:50:53;102227.63;;;6.84;100.00
74627;BME280;63132;52.268;5.192;2022-11-30T02:53:20;102229.84;;;6.79;100.00
74627;BME280;63132;52.268;5.192;2022-11-30T02:55:46;102226.59;;;6.77;100.00
74627;BME280;63132;52.268;5.192;2022-11-30T02:58:13;102228.44;;;6.73;100.00
74627;BME280;63132;52.268;5.192;2022-11-30T03:00:39;102232.69;;;6.70;100.00
74627;BME280;63132;52.268;5.192;2022-11-30T03:03:04;102232.22;;;6.68;100.00
74627;BME280;63132;52.268;5.192;2022-11-30T03:05:30;102240.03;;;6.66;100.00
74627;BME280;63132;52.268;5.192;2022-11-30T03:07:55;102238.78;;;6.63;100.00
74627;BME280;63132;52.268;5.192;2022-11-30T03:10:20;102239.69;;;6.68;100.00
74627;BME280;63132;52.268;5.192;2022-11-30T03:12:46;102236.56;;;6.69;100.00
74627;BME280;63132;52.268;5.192;2022-11-30T03:15:11;102245.97;;;6.68;100.00
74627;BME280;63132;52.268;5.192;2022-11-30T03:17:37;102244.38;;;6.67;100.00
74627;BME280;63132;52.268;5.192;2022-11-30T03:20:02;102242.56;;;6.83;100.00
74627;BME280;63132;52.268;5.192;2022-11-30T03:22:28;102248.75;;;6.80;100.00
74627;BME280;63132;52.268;5.192;2022-11-30T03:24:54;102254.06;;;6.85;100.00
74627;BME280;63132;52.268;5.192;2022-11-30T03:27:19;102249.44;;;6.77;100.00
74627;BME280;63132;52.268;5.192;2022-11-30T03:29:44;102248.97;;;6.75;100.00
74627;BME280;63132;52.268;5.192;2022-11-30T03:32:10;102259.19;;;6.75;100.00
74627;BME280;63132;52.268;5.192;2022-11-30T03:34:35;102254.81;;;6.61;100.00
74627;BME280;63132;52.268;5.192;2022-11-30T03:37:01;102258.72;;;6.73;100.00
74627;BME280;63132;52.268;5.192;2022-11-30T03:39:26;102249.19;;;6.70;100.00
74627;BME280;63132;52.268;5.192;2022-11-30T03:41:51;102250.47;;;6.73;100.00
74627;BME280;63132;52.268;5.192;2022-11-30T03:44:17;102249.19;;;6.70;100.00
74627;BME280;63132;52.268;5.192;2022-11-30T03:46:43;102247.28;;;6.71;100.00
74627;BME280;63132;52.268;5.192;2022-11-30T03:49:08;102243.78;;;6.49;100.00
74627;BME280;63132;52.268;5.192;2022-11-30T03:51:34;102246.31;;;6.54;100.00
74627;BME280;63132;52.268;5.192;2022-11-30T03:53:59;102242.66;;;6.62;100.00
74627;BME280;63132;52.268;5.192;2022-11-30T03:56:25;102239.22;;;6.65;100.00
74627;BME280;63132;52.268;5.192;2022-11-30T03:58:50;102248.03;;;6.59;100.00
74627;BME280;63132;52.268;5.192;2022-11-30T04:01:18;102243.56;;;6.54;100.00
74627;BME280;63132;52.268;5.192;2022-11-30T04:03:46;102255.50;;;6.58;100.00
74627;BME280;63132;52.268;5.192;2022-11-30T04:06:13;102253.91;;;6.70;100.00
74627;BME280;63132;52.268;5.192;2022-11-30T04:08:38;102254.47;;;6.63;100.00
74627;BME280;63132;52.268;5.192;2022-11-30T04:11:05;102258.91;;;6.55;100.00
74627;BME280;63132;52.268;5.192;2022-11-30T04:13:31;102255.38;;;6.67;100.00
74627;BME280;63132;52.268;5.192;2022-11-30T04:15:57;102249.66;;;6.84;100.00
74627;BME280;63132;52.268;5.192;2022-11-30T04:18:25;102256.34;;;6.71;100.00
74627;BME280;63132;52.268;5.192;2022-11-30T04:20:52;102255.28;;;6.76;100.00
74627;BME280;63132;52.268;5.192;2022-11-30T04:23:19;102250.03;;;6.71;100.00
74627;BME280;63132;52.268;5.192;2022-11-30T04:25:45;102260.56;;;6.56;100.00
74627;BME280;63132;52.268;5.192;2022-11-30T04:28:12;102254.09;;;6.52;100.00
74627;BME280;63132;52.268;5.192;2022-11-30T04:30:37;102260.06;;;6.42;100.00
74627;BME280;63132;52.268;5.192;2022-11-30T04:33:03;102256.97;;;6.44;100.00
74627;BME280;63132;52.268;5.192;2022-11-30T04:35:29;102248.09;;;6.38;100.00
74627;BME280;63132;52.268;5.192;2022-11-30T04:37:54;102254.06;;;6.28;100.00
74627;BME280;63132;52.268;5.192;2022-11-30T04:40:20;102260.22;;;6.25;100.00
74627;BME280;63132;52.268;5.192;2022-11-30T04:42:46;102253.38;;;6.31;100.00
74627;BME280;63132;52.268;5.192;2022-11-30T04:45:12;102259.56;;;6.28;100.00
74627;BME280;63132;52.268;5.192;2022-11-30T04:47:38;102264.38;;;6.31;100.00
74627;BME280;63132;52.268;5.192;2022-11-30T04:50:04;102255.66;;;6.29;100.00
74627;BME280;63132;52.268;5.192;2022-11-30T04:52:30;102260.59;;;6.35;100.00
74627;BME280;63132;52.268;5.192;2022-11-30T04:54:56;102264.91;;;6.24;100.00
74627;BME280;63132;52.268;5.192;2022-11-30T04:57:22;102273.50;;;6.23;100.00
74627;BME280;63132;52.268;5.192;2022-11-30T04:59:47;102271.16;;;6.33;100.00
74627;BME280;63132;52.268;5.192;2022-11-30T05:02:13;102268.88;;;6.35;100.00
74627;BME280;63132;52.268;5.192;2022-11-30T05:04:38;102268.41;;;6.33;100.00
74627;BME280;63132;52.268;5.192;2022-11-30T05:07:04;102268.72;;;6.32;100.00
74627;BME280;63132;52.268;5.192;2022-11-30T05:09:30;102269.88;;;6.31;100.00
74627;BME280;63132;52.268;5.192;2022-11-30T05:11:55;102280.06;;;6.30;100.00
74627;BME280;63132;52.268;5.192;2022-11-30T05:14:21;102268.41;;;6.33;100.00
74627;BME280;63132;52.268;5.192;2022-11-30T05:16:47;102276.31;;;6.35;100.00
74627;BME280;63132;52.268;5.192;2022-11-30T05:19:13;102278.63;;;6.45;100.00
74627;BME280;63132;52.268;5.192;2022-11-30T05:21:39;102279.81;;;6.56;100.00
74627;BME280;63132;52.268;5.192;2022-11-30T05:24:04;102280.22;;;6.46;100.00
74627;BME280;63132;52.268;5.192;2022-11-30T05:26:30;102286.63;;;6.38;100.00
74627;BME280;63132;52.268;5.192;2022-11-30T05:28:55;102285.38;;;6.35;100.00
74627;BME280;63132;52.268;5.192;2022-11-30T05:31:21;102281.72;;;6.44;100.00
74627;BME280;63132;52.268;5.192;2022-11-30T05:33:50;102285.22;;;6.65;100.00
74627;BME280;63132;52.268;5.192;2022-11-30T05:36:16;102274.16;;;6.53;100.00
74627;BME280;63132;52.268;5.192;2022-11-30T05:38:41;102292.81;;;6.35;100.00
74627;BME280;63132;52.268;5.192;2022-11-30T05:41:07;102282.72;;;6.39;100.00
74627;BME280;63132;52.268;5.192;2022-11-30T05:43:32;102285.13;;;6.41;100.00
74627;BME280;63132;52.268;5.192;2022-11-30T05:45:59;102297.78;;;6.54;100.00
74627;BME280;63132;52.268;5.192;2022-11-30T05:48:25;102290.41;;;7.03;100.00
74627;BME280;63132;52.268;5.192;2022-11-30T05:50:50;102289.50;;;6.99;100.00
74627;BME280;63132;52.268;5.192;2022-11-30T05:53:15;102290.41;;;6.79;100.00
74627;BME280;63132;52.268;5.192;2022-11-30T05:55:41;102297.47;;;6.68;100.00
74627;BME280;63132;52.268;5.192;2022-11-30T05:58:06;102297.94;;;6.57;100.00
74627;BME280;63132;52.268;5.192;2022-11-30T06:00:32;102296.53;;;6.51;100.00
74627;BME280;63132;52.268;5.192;2022-11-30T06:02:57;102303.59;;;6.73;100.00
74627;BME280;63132;52.268;5.192;2022-11-30T06:05:24;102305.00;;;6.46;100.00
74627;BME280;63132;52.268;5.192;2022-11-30T06:07:49;102297.88;;;6.78;100.00
74627;BME280;63132;52.268;5.192;2022-11-30T06:10:15;102307.19;;;6.53;100.00
74627;BME280;63132;52.268;5.192;2022-11-30T06:12:41;102314.59;;;6.40;100.00
74627;BME280;63132;52.268;5.192;2022-11-30T06:15:06;102305.53;;;6.39;100.00
74627;BME280;63132;52.268;5.192;2022-11-30T06:17:33;102306.34;;;6.40;100.00
74627;BME280;63132;52.268;5.192;2022-11-30T06:19:58;102303.38;;;6.45;100.00
74627;BME280;63132;52.268;5.192;2022-11-30T06:22:23;102307.28;;;6.11;100.00
74627;BME280;63132;52.268;5.192;2022-11-30T06:24:49;102305.59;;;6.19;100.00
74627;BME280;63132;52.268;5.192;2022-11-30T06:27:14;102305.47;;;5.94;100.00
74627;BME280;63132;52.268;5.192;2022-11-30T06:29:40;102303.81;;;5.72;100.00
74627;BME280;63132;52.268;5.192;2022-11-30T06:32:06;102306.63;;;5.64;100.00
74627;BME280;63132;52.268;5.192;2022-11-30T06:34:32;102305.44;;;5.52;100.00
74627;BME280;63132;52.268;5.192;2022-11-30T06:36:58;102300.69;;;5.32;100.00
74627;BME280;63132;52.268;5.192;2022-11-30T06:39:23;102301.09;;;5.22;100.00
74627;BME280;63132;52.268;5.192;2022-11-30T06:41:49;102307.66;;;5.00;100.00
74627;BME280;63132;52.268;5.192;2022-11-30T06:44:14;102310.69;;;4.98;100.00
74627;BME280;63132;52.268;5.192;2022-11-30T06:46:40;102307.22;;;4.81;100.00
74627;BME280;63132;52.268;5.192;2022-11-30T06:49:05;102307.41;;;4.84;100.00
74627;BME280;63132;52.268;5.192;2022-11-30T06:51:32;102316.97;;;4.69;100.00
74627;BME280;63132;52.268;5.192;2022-11-30T06:53:58;102319.38;;;4.71;100.00
74627;BME280;63132;52.268;5.192;2022-11-30T06:56:23;102317.97;;;4.56;100.00
74627;BME280;63132;52.268;5.192;2022-11-30T06:58:49;102322.81;;;4.51;100.00
74627;BME280;63132;52.268;5.192;2022-11-30T07:01:14;102325.91;;;4.40;100.00
74627;BME280;63132;52.268;5.192;2022-11-30T07:03:40;102320.72;;;4.30;100.00
74627;BME280;63132;52.268;5.192;2022-11-30T07:06:12;102321.72;;;4.26;100.00
74627;BME280;63132;52.268;5.192;2022-11-30T07:08:39;102327.69;;;4.28;100.00
74627;BME280;63132;52.268;5.192;2022-11-30T07:11:06;102330.44;;;4.19;100.00
74627;BME280;63132;52.268;5.192;2022-11-30T07:13:32;102330.91;;;4.21;100.00
74627;BME280;63132;52.268;5.192;2022-11-30T07:15:57;102330.75;;;4.09;100.00
74627;BME280;63132;52.268;5.192;2022-11-30T07:18:23;102343.00;;;4.11;100.00
74627;BME280;63132;52.268;5.192;2022-11-30T07:20:48;102337.69;;;4.06;100.00
74627;BME280;63132;52.268;5.192;2022-11-30T07:23:14;102334.47;;;4.13;100.00
74627;BME280;63132;52.268;5.192;2022-11-30T07:26:02;102337.88;;;4.10;100.00
74627;BME280;63132;52.268;5.192;2022-11-30T07:28:30;102352.19;;;4.07;100.00
74627;BME280;63132;52.268;5.192;2022-11-30T07:30:56;102353.66;;;4.04;100.00
74627;BME280;63132;52.268;5.192;2022-11-30T07:33:24;102358.47;;;3.99;100.00
74627;BME280;63132;52.268;5.192;2022-11-30T07:35:52;102360.41;;;3.98;100.00
74627;BME280;63132;52.268;5.192;2022-11-30T07:38:17;102365.41;;;4.05;100.00
74627;BME280;63132;52.268;5.192;2022-11-30T07:40:43;102366.22;;;4.14;100.00
74627;BME280;63132;52.268;5.192;2022-11-30T07:43:08;102364.28;;;4.23;100.00
74627;BME280;63132;52.268;5.192;2022-11-30T07:45:34;102365.41;;;4.31;100.00
74627;BME280;63132;52.268;5.192;2022-11-30T07:47:59;102360.41;;;4.41;100.00
74627;BME280;63132;52.268;5.192;2022-11-30T07:50:25;102358.47;;;4.51;100.00
74627;BME280;63132;52.268;5.192;2022-11-30T07:52:50;102357.31;;;4.60;100.00
74627;BME280;63132;52.268;5.192;2022-11-30T07:55:16;102355.22;;;4.66;100.00
74627;BME280;63132;52.268;5.192;2022-11-30T07:57:42;102369.56;;;4.71;100.00
74627;BME280;63132;52.268;5.192;2022-11-30T08:00:07;102364.56;;;4.65;100.00
74627;BME280;63132;52.268;5.192;2022-11-30T08:02:33;102371.19;;;4.72;100.00
74627;BME280;63132;52.268;5.192;2022-11-30T08:04:59;102381.66;;;4.79;100.00
74627;BME280;63132;52.268;5.192;2022-11-30T08:07:24;102375.38;;;4.79;100.00
74627;BME280;63132;52.268;5.192;2022-11-30T08:09:49;102387.50;;;4.78;100.00
74627;BME280;63132;52.268;5.192;2022-11-30T08:12:15;102389.75;;;4.84;100.00
74627;BME280;63132;52.268;5.192;2022-11-30T08:14:41;102394.19;;;4.97;100.00
74627;BME280;63132;52.268;5.192;2022-11-30T08:17:07;102400.31;;;5.12;100.00
74627;BME280;63132;52.268;5.192;2022-11-30T08:19:33;102393.66;;;5.13;100.00
74627;BME280;63132;52.268;5.192;2022-11-30T08:21:58;102403.69;;;5.17;100.00
74627;BME280;63132;52.268;5.192;2022-11-30T08:24:24;102412.84;;;5.30;100.00
74627;BME280;63132;52.268;5.192;2022-11-30T08:26:50;102412.19;;;5.33;100.00
74627;BME280;63132;52.268;5.192;2022-11-30T08:29:16;102405.16;;;5.53;100.00
74627;BME280;63132;52.268;5.192;2022-11-30T08:31:42;102408.03;;;5.56;100.00
74627;BME280;63132;52.268;5.192;2022-11-30T08:34:10;102406.38;;;5.64;100.00
74627;BME280;63132;52.268;5.192;2022-11-30T08:36:36;102420.06;;;5.73;100.00
74627;BME280;63132;52.268;5.192;2022-11-30T08:39:03;102417.66;;;5.71;100.00
74627;BME280;63132;52.268;5.192;2022-11-30T08:41:29;102420.19;;;5.85;100.00
74627;BME280;63132;52.268;5.192;2022-11-30T08:43:55;102422.47;;;5.83;100.00
74627;BME280;63132;52.268;5.192;2022-11-30T08:46:22;102422.38;;;6.00;100.00
74627;BME280;63132;52.268;5.192;2022-11-30T08:48:48;102418.47;;;6.01;100.00
74627;BME280;63132;52.268;5.192;2022-11-30T08:51:15;102420.84;;;6.12;100.00
74627;BME280;63132;52.268;5.192;2022-11-30T08:53:42;102426.63;;;6.19;100.00
74627;BME280;63132;52.268;5.192;2022-11-30T08:56:12;102427.09;;;6.21;100.00
74627;BME280;63132;52.268;5.192;2022-11-30T08:58:39;102428.56;;;6.39;100.00
74627;BME280;63132;52.268;5.192;2022-11-30T09:03:43;102422.88;;;6.44;100.00
74627;BME280;63132;52.268;5.192;2022-11-30T09:06:12;102427.69;;;6.47;100.00
74627;BME280;63132;52.268;5.192;2022-11-30T09:08:39;102436.47;;;6.61;100.00
74627;BME280;63132;52.268;5.192;2022-11-30T09:11:10;102439.38;;;6.65;100.00
74627;BME280;63132;52.268;5.192;2022-11-30T09:13:35;102444.44;;;6.75;100.00
74627;BME280;63132;52.268;5.192;2022-11-30T09:16:01;102437.16;;;6.91;100.00
74627;BME280;63132;52.268;5.192;2022-11-30T09:18:27;102432.00;;;6.90;100.00
74627;BME280;63132;52.268;5.192;2022-11-30T09:20:52;102437.72;;;6.85;100.00
74627;BME280;63132;52.268;5.192;2022-11-30T09:23:19;102446.84;;;6.77;100.00
74627;BME280;63132;52.268;5.192;2022-11-30T09:25:44;102440.06;;;6.95;100.00
74627;BME280;63132;52.268;5.192;2022-11-30T09:28:10;102443.31;;;7.09;100.00
74627;BME280;63132;52.268;5.192;2022-11-30T09:30:35;102448.78;;;6.97;100.00
74627;BME280;63132;52.268;5.192;2022-11-30T09:33:00;102440.50;;;6.97;100.00
74627;BME280;63132;52.268;5.192;2022-11-30T09:35:26;102446.66;;;7.27;100.00
74627;BME280;63132;52.268;5.192;2022-11-30T09:37:52;102438.31;;;7.72;97.25
74627;BME280;63132;52.268;5.192;2022-11-30T09:40:20;102441.31;;;7.92;94.98
74627;BME280;63132;52.268;5.192;2022-11-30T09:45:35;102452.34;;;7.92;95.57
74627;BME280;63132;52.268;5.192;2022-11-30T09:48:07;102452.91;;;8.10;95.74
74627;BME280;63132;52.268;5.192;2022-11-30T09:50:40;102454.19;;;8.12;94.63
74627;BME280;63132;52.268;5.192;2022-11-30T09:53:14;102447.88;;;7.99;96.76
74627;BME280;63132;52.268;5.192;2022-11-30T09:55:42;102455.34;;;7.87;96.33
74627;BME280;63132;52.268;5.192;2022-11-30T09:58:35;102443.69;;;8.18;92.53
74627;BME280;63132;52.268;5.192;2022-11-30T10:01:03;102448.63;;;8.24;93.48
74627;BME280;63132;52.268;5.192;2022-11-30T10:03:30;102441.53;;;7.99;95.63
74627;BME280;63132;52.268;5.192;2022-11-30T10:05:58;102451.78;;;7.98;94.48
74627;BME280;63132;52.268;5.192;2022-11-30T10:08:43;102449.28;;;8.46;93.48
74627;BME280;63132;52.268;5.192;2022-11-30T10:14:47;102455.31;;;7.50;98.72
74627;BME280;63132;52.268;5.192;2022-11-30T10:25:57;102453.94;;;7.44;98.28
74627;BME280;63132;52.268;5.192;2022-11-30T10:31:10;102449.59;;;7.55;98.97
74627;BME280;63132;52.268;5.192;2022-11-30T10:33:48;102446.94;;;7.59;99.50
74627;BME280;63132;52.268;5.192;2022-11-30T10:38:49;102451.66;;;7.58;98.40
74627;BME280;63132;52.268;5.192;2022-11-30T10:41:24;102454.53;;;7.62;97.97
74627;BME280;63132;52.268;5.192;2022-11-30T10:43:55;102448.41;;;7.44;99.14
74627;BME280;63132;52.268;5.192;2022-11-30T10:46:28;102454.16;;;7.51;99.27
74627;BME280;63132;52.268;5.192;2022-11-30T10:49:05;102446.13;;;7.46;98.37
74627;BME280;63132;52.268;5.192;2022-11-30T10:51:35;102451.91;;;7.53;99.45
74627;BME280;63132;52.268;5.192;2022-11-30T10:54:04;102445.19;;;7.42;98.71
74627;BME280;63132;52.268;5.192;2022-11-30T10:56:36;102443.16;;;7.39;99.34
74627;BME280;63132;52.268;5.192;2022-11-30T10:59:05;102442.78;;;7.40;97.98
74627;BME280;63132;52.268;5.192;2022-11-30T11:01:39;102448.69;;;7.75;96.51
74627;BME280;63132;52.268;5.192;2022-11-30T11:07:01;102436.25;;;7.33;99.18
74627;BME280;63132;52.268;5.192;2022-11-30T11:09:59;102438.91;;;7.54;97.23
74627;BME280;63132;52.268;5.192;2022-11-30T11:12:27;102441.78;;;7.57;98.02
74627;BME280;63132;52.268;5.192;2022-11-30T11:15:20;102438.53;;;8.04;95.14
74627;BME280;63132;52.268;5.192;2022-11-30T11:17:47;102430.16;;;7.88;95.06
74627;BME280;63132;52.268;5.192;2022-11-30T11:20:34;102433.72;;;8.01;94.94
74627;BME280;63132;52.268;5.192;2022-11-30T11:23:01;102432.81;;;7.72;95.67
74627;BME280;63132;52.268;5.192;2022-11-30T11:25:32;102435.00;;;7.55;96.33
74627;BME280;63132;52.268;5.192;2022-11-30T11:28:04;102437.28;;;7.40;96.59
74627;BME280;63132;52.268;5.192;2022-11-30T11:30:33;102439.22;;;7.52;96.75
74627;BME280;63132;52.268;5.192;2022-11-30T11:35:44;102431.41;;;7.30;97.68
74627;BME280;63132;52.268;5.192;2022-11-30T11:38:20;102440.34;;;7.27;97.52
74627;BME280;63132;52.268;5.192;2022-11-30T11:41:04;102434.84;;;7.27;97.59
74627;BME280;63132;52.268;5.192;2022-11-30T11:43:32;102430.94;;;7.28;97.21
74627;BME280;63132;52.268;5.192;2022-11-30T11:46:00;102436.91;;;7.17;97.32
74627;BME280;63132;52.268;5.192;2022-11-30T11:49:05;102431.94;;;7.11;98.29
74627;BME280;63132;52.268;5.192;2022-11-30T11:51:35;102435.50;;;7.11;99.21
74627;BME280;63132;52.268;5.192;2022-11-30T11:56:31;102432.44;;;7.37;97.72
74627;BME280;63132;52.268;5.192;2022-11-30T11:59:02;102425.78;;;7.26;97.21
74627;BME280;63132;52.268;5.192;2022-11-30T12:02:00;102428.19;;;7.52;95.20
74627;BME280;63132;52.268;5.192;2022-11-30T12:04:36;102432.06;;;7.14;96.80
74627;BME280;63132;52.268;5.192;2022-11-30T12:07:16;102432.84;;;7.03;97.17
74627;BME280;63132;52.268;5.192;2022-11-30T12:09:54;102423.88;;;6.93;97.26
74627;BME280;63132;52.268;5.192;2022-11-30T12:12:20;102427.44;;;6.94;98.00
74627;BME280;63132;52.268;5.192;2022-11-30T12:14:45;102423.06;;;6.93;98.12
74627;BME280;63132;52.268;5.192;2022-11-30T12:17:49;102424.69;;;6.94;97.98
74627;BME280;63132;52.268;5.192;2022-11-30T12:20:53;102428.81;;;7.00;96.90
74627;BME280;63132;52.268;5.192;2022-11-30T12:28:34;102436.19;;;7.08;94.43
74627;BME280;63132;52.268;5.192;2022-11-30T12:31:11;102427.13;;;7.08;94.68
74627;BME280;63132;52.268;5.192;2022-11-30T12:36:44;102432.53;;;7.16;94.02
74627;BME280;63132;52.268;5.192;2022-11-30T12:47:57;102438.16;;;7.20;94.37
74627;BME280;63132;52.268;5.192;2022-11-30T12:50:41;102437.16;;;7.25;93.75
74627;BME280;63132;52.268;5.192;2022-11-30T12:53:12;102447.72;;;7.22;93.04
74627;BME280;63132;52.268;5.192;2022-11-30T12:56:00;102445.16;;;7.17;93.76
74627;BME280;63132;52.268;5.192;2022-11-30T13:04:42;102441.19;;;6.94;93.83
74627;BME280;63132;52.268;5.192;2022-11-30T13:12:35;102443.25;;;6.97;93.26
74627;BME280;63132;52.268;5.192;2022-11-30T13:15:10;102445.56;;;6.95;94.54
74627;BME280;63132;52.268;5.192;2022-11-30T13:17:37;102442.81;;;6.95;93.07
74627;BME280;63132;52.268;5.192;2022-11-30T13:20:13;102445.09;;;6.93;93.81
74627;BME280;63132;52.268;5.192;2022-11-30T13:23:00;102454.03;;;6.90;92.88
74627;BME280;63132;52.268;5.192;2022-11-30T13:31:23;102457.53;;;7.11;92.22
74627;BME280;63132;52.268;5.192;2022-11-30T13:36:40;102460.75;;;7.01;91.08
74627;BME280;63132;52.268;5.192;2022-11-30T13:39:08;102466.78;;;6.94;91.37
74627;BME280;63132;52.268;5.192;2022-11-30T13:41:35;102464.25;;;6.89;90.46
74627;BME280;63132;52.268;5.192;2022-11-30T13:44:02;102463.09;;;6.90;90.54
74627;BME280;63132;52.268;5.192;2022-11-30T13:46:28;102463.63;;;6.84;91.08
74627;BME280;63132;52.268;5.192;2022-11-30T13:49:18;102465.25;;;6.85;89.99
74627;BME280;63132;52.268;5.192;2022-11-30T13:51:45;102461.44;;;6.77;90.27
74627;BME280;63132;52.268;5.192;2022-11-30T13:59:53;102462.59;;;6.55;91.22
74627;BME280;63132;52.268;5.192;2022-11-30T14:08:08;102459.50;;;6.36;92.75
74627;BME280;63132;52.268;5.192;2022-11-30T14:10:36;102455.19;;;6.47;91.51
74627;BME280;63132;52.268;5.192;2022-11-30T14:20:38;102468.63;;;6.28;92.12
74627;BME280;63132;52.268;5.192;2022-11-30T14:25:52;102483.44;;;6.15;93.60
74627;BME280;63132;52.268;5.192;2022-11-30T14:28:25;102488.47;;;6.13;93.15
74627;BME280;63132;52.268;5.192;2022-11-30T14:30:54;102481.66;;;6.19;92.53
74627;BME280;63132;52.268;5.192;2022-11-30T14:33:31;102485.91;;;6.07;93.63
74627;BME280;63132;52.268;5.192;2022-11-30T14:36:00;102479.59;;;6.07;92.46
74627;BME280;63132;52.268;5.192;2022-11-30T14:38:28;102494.06;;;5.95;93.55
74627;BME280;63132;52.268;5.192;2022-11-30T14:40:56;102489.56;;;5.91;94.42
74627;BME280;63132;52.268;5.192;2022-11-30T14:43:22;102492.78;;;5.93;94.04
74627;BME280;63132;52.268;5.192;2022-11-30T14:46:05;102498.63;;;5.82;94.59
74627;BME280;63132;52.268;5.192;2022-11-30T14:48:30;102494.63;;;5.71;94.87